createdAt,value
2019-06-07T00:00:25.995Z,0.00
2019-06-07T00:01:08.444Z,0.00
2019-06-07T00:02:08.212Z,0.00
2019-06-07T00:03:10.610Z,0.00
2019-06-07T00:04:09.877Z,0.00
2019-06-07T00:05:07.663Z,0.00
2019-06-07T00:06:10.253Z,0.00
2019-06-07T00:07:09.014Z,0.00
2019-06-07T00:08:11.699Z,0.00
2019-06-07T00:09:09.706Z,0.00
2019-06-07T00:10:07.105Z,0.00
2019-06-07T00:11:09.918Z,0.00
2019-06-07T00:12:09.087Z,0.00
2019-06-07T00:13:07.020Z,0.00
2019-06-07T00:14:08.616Z,0.00
2019-06-07T00:15:11.688Z,0.00
2019-06-07T00:16:08.560Z,0.00
2019-06-07T00:17:07.951Z,0.00
2019-06-07T00:18:11.213Z,0.00
2019-06-07T00:19:07.221Z,0.00
2019-06-07T00:20:11.005Z,0.00
2019-06-07T00:21:08.939Z,0.00
2019-06-07T00:22:16.588Z,0.00
2019-06-07T00:23:08.511Z,0.00
2019-06-07T00:24:08.565Z,0.00
2019-06-07T00:25:10.165Z,0.00
2019-06-07T00:26:06.716Z,0.00
2019-06-07T00:27:06.690Z,0.00
2019-06-07T00:28:06.670Z,0.00
2019-06-07T00:29:06.645Z,0.00
2019-06-07T00:30:32.500Z,0.00
2019-06-07T00:31:06.597Z,0.00
2019-06-07T00:32:06.574Z,0.00
2019-06-07T00:33:06.552Z,0.00
2019-06-07T00:34:06.529Z,0.00
2019-06-07T00:35:06.504Z,0.00
2019-06-07T00:36:06.482Z,0.00
2019-06-07T00:37:07.097Z,0.00
2019-06-07T00:38:06.436Z,0.00
2019-06-07T00:39:06.420Z,0.00
2019-06-07T00:40:16.299Z,0.00
2019-06-07T00:41:06.367Z,0.00
2019-06-07T00:42:06.342Z,0.00
2019-06-07T00:43:06.318Z,0.00
2019-06-07T00:44:06.295Z,0.00
2019-06-07T00:45:06.276Z,0.00
2019-06-07T00:46:06.247Z,0.00
2019-06-07T00:47:06.224Z,0.00
2019-06-07T00:48:06.210Z,0.00
2019-06-07T00:49:06.177Z,0.00
2019-06-07T00:50:06.160Z,0.00
2019-06-07T00:51:06.130Z,0.00
2019-06-07T00:52:06.109Z,0.00
2019-06-07T00:53:17.443Z,0.00
2019-06-07T00:54:06.061Z,0.00
2019-06-07T00:55:06.035Z,0.00
2019-06-07T00:56:06.013Z,0.00
2019-06-07T00:57:05.990Z,0.00
2019-06-07T00:58:05.966Z,0.00
2019-06-07T00:59:11.258Z,0.00
2019-06-07T01:00:05.918Z,0.00
2019-06-07T01:01:05.895Z,0.00
2019-06-07T01:02:05.873Z,0.00
2019-06-07T01:03:05.852Z,0.00
2019-06-07T01:04:05.851Z,0.00
2019-06-07T01:05:05.808Z,0.00
2019-06-07T01:06:05.777Z,0.00
2019-06-07T01:07:05.755Z,0.00
2019-06-07T01:08:05.736Z,0.00
2019-06-07T01:09:05.714Z,0.00
2019-06-07T01:10:05.684Z,0.00
2019-06-07T01:11:05.659Z,0.00
2019-06-07T01:12:05.640Z,0.00
2019-06-07T01:13:05.612Z,0.00
2019-06-07T01:14:05.590Z,0.00
2019-06-07T01:15:05.566Z,0.00
2019-06-07T01:16:05.542Z,0.00
2019-06-07T01:17:22.675Z,0.00
2019-06-07T01:18:35.858Z,0.00
2019-06-07T01:19:05.471Z,0.00
2019-06-07T01:20:05.447Z,0.00
2019-06-07T01:21:05.425Z,0.00
2019-06-07T01:22:05.400Z,0.00
2019-06-07T01:23:05.378Z,0.00
2019-06-07T01:24:11.877Z,0.00
2019-06-07T01:25:05.329Z,0.00
2019-06-07T01:26:05.310Z,0.00
2019-06-07T01:27:05.281Z,0.00
2019-06-07T01:28:05.259Z,0.00
2019-06-07T01:29:05.235Z,0.00
2019-06-07T01:30:05.227Z,0.00
2019-06-07T01:31:05.187Z,0.00
2019-06-07T01:32:05.163Z,0.00
2019-06-07T01:33:05.142Z,0.00
2019-06-07T01:34:05.119Z,0.00
2019-06-07T01:35:05.092Z,0.00
2019-06-07T01:36:05.069Z,0.00
2019-06-07T01:37:05.047Z,0.00
2019-06-07T01:38:05.022Z,0.00
2019-06-07T01:39:04.998Z,0.00
2019-06-07T01:40:04.984Z,0.00
2019-06-07T01:41:04.952Z,0.00
2019-06-07T01:42:04.928Z,0.00
2019-06-07T01:43:04.904Z,0.00
2019-06-07T01:44:04.881Z,0.00
2019-06-07T01:45:04.856Z,0.00
2019-06-07T01:46:04.834Z,0.00
2019-06-07T01:47:04.811Z,0.00
2019-06-07T01:48:04.788Z,0.00
2019-06-07T01:49:04.763Z,0.00
2019-06-07T01:50:04.739Z,0.00
2019-06-07T01:51:05.359Z,0.00
2019-06-07T01:52:04.691Z,0.00
2019-06-07T01:53:04.667Z,0.00
2019-06-07T01:55:04.620Z,0.00
2019-06-07T01:56:04.597Z,0.00
2019-06-07T01:57:04.573Z,0.00
2019-06-07T01:58:04.552Z,0.00
2019-06-07T01:59:04.524Z,0.00
2019-06-07T02:00:04.503Z,0.00
2019-06-07T02:01:04.483Z,0.00
2019-06-07T02:02:04.458Z,4.00
2019-06-07T02:03:04.432Z,4.00
2019-06-07T02:04:04.406Z,4.00
2019-06-07T02:05:04.382Z,0.00
2019-06-07T02:06:04.359Z,4.00
2019-06-07T02:07:04.334Z,4.00
2019-06-07T02:08:04.311Z,4.00
2019-06-07T02:09:04.287Z,8.00
2019-06-07T02:10:04.265Z,4.00
2019-06-07T02:11:04.242Z,4.00
2019-06-07T02:12:23.487Z,8.00
2019-06-07T02:13:04.192Z,8.00
2019-06-07T02:14:04.169Z,8.00
2019-06-07T02:15:04.326Z,8.00
2019-06-07T02:16:04.122Z,12.00
2019-06-07T02:17:04.099Z,12.00
2019-06-07T02:18:04.107Z,12.00
2019-06-07T02:19:04.153Z,16.00
2019-06-07T02:20:04.029Z,16.00
2019-06-07T02:21:04.067Z,20.00
2019-06-07T02:22:03.977Z,24.00
2019-06-07T02:23:03.953Z,24.00
2019-06-07T02:24:03.928Z,28.00
2019-06-07T02:25:35.195Z,32.00
2019-06-07T02:26:03.882Z,36.00
2019-06-07T02:27:03.857Z,40.00
2019-06-07T02:28:26.766Z,44.00
2019-06-07T02:29:03.808Z,52.00
2019-06-07T02:30:35.643Z,56.00
2019-06-07T02:31:03.777Z,64.00
2019-06-07T02:32:03.793Z,68.00
2019-06-07T02:33:03.721Z,72.00
2019-06-07T02:34:03.694Z,84.00
2019-06-07T02:35:03.671Z,92.00
2019-06-07T02:36:03.692Z,96.00
2019-06-07T02:37:03.613Z,108.00
2019-06-07T02:38:03.655Z,120.00
2019-06-07T02:39:03.565Z,128.00
2019-06-07T02:40:03.543Z,140.00
2019-06-07T02:41:03.514Z,152.00
2019-06-07T02:42:03.493Z,164.00
2019-06-07T02:43:03.465Z,172.00
2019-06-07T02:44:03.442Z,184.00
2019-06-07T02:45:03.420Z,200.00
2019-06-07T02:46:24.180Z,216.00
2019-06-07T02:47:03.368Z,228.00
2019-06-07T02:48:03.346Z,248.00
2019-06-07T02:49:03.319Z,264.00
2019-06-07T02:50:03.301Z,288.00
2019-06-07T02:51:03.271Z,316.00
2019-06-07T02:52:03.245Z,340.00
2019-06-07T02:53:03.220Z,364.00
2019-06-07T02:54:03.236Z,392.00
2019-06-07T02:55:03.209Z,416.00
2019-06-07T02:57:03.120Z,484.00
2019-06-07T02:58:03.097Z,516.00
2019-06-07T02:59:03.245Z,544.00
2019-06-07T03:00:27.089Z,572.00
2019-06-07T03:01:09.188Z,592.00
2019-06-07T03:02:03.054Z,616.00
2019-06-07T03:03:02.972Z,648.00
2019-06-07T03:04:02.953Z,684.00
2019-06-07T03:05:02.922Z,720.00
2019-06-07T03:06:02.898Z,756.00
2019-06-07T03:07:02.870Z,796.00
2019-06-07T03:08:02.847Z,840.00
2019-06-07T03:09:02.821Z,880.00
2019-06-07T03:10:02.850Z,928.00
2019-06-07T03:11:02.770Z,976.00
2019-06-07T03:12:02.748Z,1024.00
2019-06-07T03:13:02.723Z,1076.00
2019-06-07T03:14:02.701Z,1132.00
2019-06-07T03:15:02.723Z,1172.00
2019-06-07T03:16:02.647Z,1208.00
2019-06-07T03:17:02.621Z,1236.00
2019-06-07T03:18:02.597Z,1268.00
2019-06-07T03:19:02.574Z,1304.00
2019-06-07T03:20:02.545Z,1348.00
2019-06-07T03:21:05.460Z,1388.00
2019-06-07T03:22:02.498Z,1424.00
2019-06-07T03:23:02.473Z,1464.00
2019-06-07T03:24:02.445Z,1504.00
2019-06-07T03:25:02.420Z,1552.00
2019-06-07T03:26:02.394Z,1604.00
2019-06-07T03:28:02.343Z,1720.00
2019-06-07T03:29:02.319Z,1780.00
2019-06-07T03:30:35.003Z,1852.00
2019-06-07T03:31:03.325Z,1916.00
2019-06-07T03:32:02.245Z,1972.00
2019-06-07T03:33:02.217Z,2020.00
2019-06-07T03:34:02.191Z,2088.00
2019-06-07T03:35:02.165Z,2172.00
2019-06-07T03:36:22.910Z,2276.00
2019-06-07T03:37:02.115Z,2384.00
2019-06-07T03:38:02.296Z,2456.00
2019-06-07T03:39:02.064Z,2584.00
2019-06-07T03:40:02.049Z,2720.00
2019-06-07T03:41:02.013Z,2844.00
2019-06-07T03:42:06.226Z,2944.00
2019-06-07T03:43:01.962Z,3052.00
2019-06-07T03:44:01.937Z,3180.00
2019-06-07T03:45:01.912Z,3312.00
2019-06-07T03:46:01.891Z,3428.00
2019-06-07T03:47:01.860Z,3528.00
2019-06-07T03:48:01.835Z,3604.00
2019-06-07T03:49:02.495Z,3696.00
2019-06-07T03:50:01.788Z,3788.00
2019-06-07T03:51:04.944Z,3868.00
2019-06-07T03:52:01.732Z,3932.00
2019-06-07T03:53:01.713Z,4012.00
2019-06-07T03:54:01.682Z,4080.00
2019-06-07T03:55:01.656Z,4120.00
2019-06-07T03:56:01.948Z,4136.00
2019-06-07T03:57:01.604Z,4164.00
2019-06-07T03:58:30.599Z,4252.00
2019-06-07T03:59:01.554Z,4344.00
2019-06-07T04:00:01.557Z,4396.00
2019-06-07T04:01:02.173Z,4468.00
2019-06-07T04:02:01.478Z,4512.00
2019-06-07T04:03:01.452Z,4540.00
2019-06-07T04:04:01.428Z,4580.00
2019-06-07T04:05:01.403Z,4700.00
2019-06-07T04:06:01.377Z,4828.00
2019-06-07T04:07:01.350Z,4712.00
2019-06-07T04:08:01.412Z,4708.00
2019-06-07T04:09:01.300Z,4740.00
2019-06-07T04:10:01.277Z,4768.00
2019-06-07T04:11:01.271Z,4788.00
2019-06-07T04:12:01.230Z,4800.00
2019-06-07T04:13:01.226Z,4820.00
2019-06-07T04:14:01.210Z,4844.00
2019-06-07T04:15:01.147Z,4872.00
2019-06-07T04:16:01.124Z,4908.00
2019-06-07T04:17:01.099Z,4948.00
2019-06-07T04:18:02.441Z,4992.00
2019-06-07T04:19:01.047Z,5048.00
2019-06-07T04:20:01.024Z,5112.00
2019-06-07T04:21:01.002Z,5184.00
2019-06-07T04:22:00.979Z,5404.00
2019-06-07T04:23:00.946Z,5760.00
2019-06-07T04:24:00.922Z,5780.00
2019-06-07T04:25:00.895Z,5540.00
2019-06-07T04:26:00.871Z,5784.00
2019-06-07T04:27:00.846Z,5856.00
2019-06-07T04:28:00.821Z,5712.00
2019-06-07T04:30:07.225Z,5816.00
2019-06-07T04:31:00.745Z,5932.00
2019-06-07T04:32:00.720Z,6308.00
2019-06-07T04:33:00.700Z,7248.00
2019-06-07T04:34:00.671Z,6756.00
2019-06-07T04:35:00.646Z,6140.00
2019-06-07T04:36:00.619Z,6176.00
2019-06-07T04:37:00.596Z,6224.00
2019-06-07T04:38:00.572Z,6296.00
2019-06-07T04:39:00.546Z,6332.00
2019-06-07T04:40:00.523Z,6316.00
2019-06-07T04:41:00.498Z,6376.00
2019-06-07T04:42:00.473Z,6524.00
2019-06-07T04:43:00.447Z,6500.00
2019-06-07T04:44:00.425Z,6464.00
2019-06-07T04:45:00.400Z,6508.00
2019-06-07T04:46:00.374Z,6564.00
2019-06-07T04:47:00.352Z,6628.00
2019-06-07T04:48:00.329Z,6700.00
2019-06-07T04:49:00.302Z,6788.00
2019-06-07T04:50:00.278Z,6880.00
2019-06-07T04:51:00.252Z,6888.00
2019-06-07T04:52:00.228Z,6844.00
2019-06-07T04:53:00.254Z,6868.00
2019-06-07T04:54:00.179Z,6888.00
2019-06-07T04:55:00.157Z,6904.00
2019-06-07T04:56:00.132Z,6928.00
2019-06-07T04:57:00.153Z,6940.00
2019-06-07T04:58:00.082Z,6968.00
2019-06-07T04:59:00.057Z,6968.00
2019-06-07T05:00:22.274Z,7028.00
2019-06-07T05:01:03.513Z,7036.00
2019-06-07T05:01:59.985Z,7016.00
2019-06-07T05:02:59.961Z,7028.00
2019-06-07T05:03:59.935Z,7056.00
2019-06-07T05:04:59.912Z,7088.00
2019-06-07T05:05:59.888Z,7116.00
2019-06-07T05:06:59.864Z,7188.00
2019-06-07T05:08:07.266Z,7408.00
2019-06-07T05:08:59.817Z,7868.00
2019-06-07T05:09:59.795Z,8692.00
2019-06-07T05:10:59.766Z,8780.00
2019-06-07T05:11:59.745Z,7964.00
2019-06-07T05:12:59.745Z,7532.00
2019-06-07T05:13:59.695Z,7680.00
2019-06-07T05:14:59.670Z,9576.00
2019-06-07T05:15:59.646Z,11416.00
2019-06-07T05:16:59.622Z,10916.00
2019-06-07T05:17:59.599Z,10408.00
2019-06-07T05:18:59.610Z,11092.00
2019-06-07T05:19:59.550Z,16100.00
2019-06-07T05:20:59.763Z,19392.00
2019-06-07T05:22:04.328Z,15384.00
2019-06-07T05:22:59.481Z,20608.00
2019-06-07T05:24:07.565Z,24640.00
2019-06-07T05:24:59.434Z,25984.00
2019-06-07T05:25:59.409Z,26432.00
2019-06-07T05:26:59.408Z,27168.00
2019-06-07T05:27:59.365Z,29536.00
2019-06-07T05:28:59.343Z,31648.00
2019-06-07T05:30:09.598Z,30816.00
2019-06-07T05:31:05.331Z,27840.00
2019-06-07T05:31:59.277Z,25376.00
2019-06-07T05:32:59.257Z,25280.00
2019-06-07T05:33:59.239Z,26048.00
2019-06-07T05:34:59.231Z,26720.00
2019-06-07T05:35:59.197Z,27520.00
2019-06-07T05:37:11.688Z,27936.00
2019-06-07T05:37:59.158Z,26784.00
2019-06-07T05:38:59.140Z,25216.00
2019-06-07T05:39:59.120Z,24192.00
2019-06-07T05:40:59.104Z,25600.00
2019-06-07T05:41:59.082Z,28640.00
2019-06-07T05:42:59.064Z,30880.00
2019-06-07T05:44:12.005Z,30688.00
2019-06-07T05:44:59.029Z,29216.00
2019-06-07T05:45:59.011Z,28128.00
2019-06-07T05:46:58.992Z,29632.00
2019-06-07T05:47:58.979Z,34592.00
2019-06-07T05:48:58.958Z,38848.00
2019-06-07T05:49:58.993Z,39360.00
2019-06-07T05:50:58.927Z,35520.00
2019-06-07T05:51:58.908Z,32096.00
2019-06-07T05:52:58.891Z,32832.00
2019-06-07T05:53:58.874Z,35456.00
2019-06-07T05:54:58.855Z,38080.00
2019-06-07T05:55:58.841Z,40640.00
2019-06-07T05:56:58.824Z,41952.00
2019-06-07T05:57:58.817Z,42656.00
2019-06-07T05:58:58.790Z,42688.00
2019-06-07T05:59:58.805Z,43840.00
2019-06-07T06:01:41.078Z,43712.00
2019-06-07T06:02:04.846Z,41984.00
2019-06-07T06:03:05.510Z,41632.00
2019-06-07T06:03:58.710Z,43392.00
2019-06-07T06:04:58.832Z,45920.00
2019-06-07T06:05:58.680Z,46912.00
2019-06-07T06:06:58.705Z,45664.00
2019-06-07T06:07:58.649Z,44192.00
2019-06-07T06:09:13.445Z,42304.00
2019-06-07T06:09:58.620Z,41408.00
2019-06-07T06:10:58.603Z,42752.00
2019-06-07T06:12:02.264Z,45280.00
2019-06-07T06:12:58.574Z,45952.00
2019-06-07T06:14:07.267Z,45760.00
2019-06-07T06:14:58.547Z,44672.00
2019-06-07T06:16:02.003Z,43520.00
2019-06-07T06:16:58.625Z,41440.00
2019-06-07T06:17:58.551Z,39744.00
2019-06-07T06:18:58.526Z,41184.00
2019-06-07T06:19:58.821Z,45120.00
2019-06-07T06:21:16.203Z,49440.00
2019-06-07T06:21:58.444Z,52192.00
2019-06-07T06:22:58.430Z,53248.00
2019-06-07T06:23:58.415Z,51680.00
2019-06-07T06:25:31.053Z,49280.00
2019-06-07T06:25:58.614Z,48640.00
2019-06-07T06:27:15.238Z,49504.00
2019-06-07T06:28:11.493Z,53696.00
2019-06-07T06:28:58.347Z,57088.00
2019-06-07T06:29:58.333Z,57664.00
2019-06-07T06:30:58.356Z,55264.00
2019-06-07T06:32:58.919Z,44064.00
2019-06-07T06:33:58.279Z,41376.00
2019-06-07T06:34:58.263Z,41632.00
2019-06-07T06:35:58.272Z,45920.00
2019-06-07T06:36:58.237Z,51296.00
2019-06-07T06:37:59.529Z,55392.00
2019-06-07T06:38:58.210Z,57920.00
2019-06-07T06:39:58.195Z,59072.00
2019-06-07T06:41:14.762Z,58976.00
2019-06-07T06:42:03.594Z,57952.00
2019-06-07T06:42:58.155Z,55008.00
2019-06-07T06:43:58.142Z,51968.00
2019-06-07T06:44:58.128Z,49632.00
2019-06-07T06:45:58.134Z,48832.00
2019-06-07T06:46:58.685Z,50688.00
2019-06-07T06:47:58.089Z,53088.00
2019-06-07T06:48:58.485Z,55968.00
2019-06-07T06:49:58.063Z,59232.00
2019-06-07T06:50:58.048Z,60832.00
2019-06-07T06:51:58.034Z,60384.00
2019-06-07T06:52:58.022Z,58688.00
2019-06-07T06:53:58.009Z,55328.00
2019-06-07T06:55:00.706Z,53824.00
2019-06-07T06:55:57.983Z,52992.00
2019-06-07T06:57:18.122Z,51936.00
2019-06-07T06:57:57.955Z,51424.00
2019-06-07T06:59:34.162Z,50784.00
2019-06-07T06:59:57.932Z,51360.00
2019-06-07T07:01:06.599Z,53344.00
2019-06-07T07:01:57.904Z,57568.00
2019-06-07T07:04:11.077Z,68960.00
2019-06-07T07:04:57.861Z,76960.00
2019-06-07T07:06:23.125Z,81216.00
2019-06-07T07:06:57.837Z,74816.00
2019-06-07T07:07:57.823Z,62176.00
2019-06-07T07:08:57.812Z,45760.00
2019-06-07T07:09:59.495Z,36672.00
2019-06-07T07:10:57.790Z,38464.00
2019-06-07T07:12:10.944Z,50720.00
2019-06-07T07:12:57.755Z,65952.00
2019-06-07T07:13:57.743Z,79680.00
2019-06-07T07:14:57.731Z,83680.00
2019-06-07T07:15:58.642Z,79456.00
2019-06-07T07:16:57.706Z,71328.00
2019-06-07T07:18:07.763Z,65024.00
2019-06-07T07:18:57.705Z,63904.00
2019-06-07T07:19:57.663Z,66208.00
2019-06-07T07:20:57.827Z,65248.00
2019-06-07T07:21:57.781Z,62016.00
2019-06-07T07:22:57.622Z,57568.00
2019-06-07T07:24:20.330Z,55552.00
2019-06-07T07:24:57.597Z,60128.00
2019-06-07T07:25:59.870Z,69568.00
2019-06-07T07:26:58.484Z,75904.00
2019-06-07T07:27:57.556Z,77024.00
2019-06-07T07:28:57.991Z,73920.00
2019-06-07T07:30:34.804Z,67904.00
2019-06-07T07:30:57.612Z,65504.00
2019-06-07T07:31:57.505Z,67264.00
2019-06-07T07:32:59.325Z,71168.00
2019-06-07T07:34:28.989Z,78112.00
2019-06-07T07:35:00.478Z,82784.00
2019-06-07T07:36:35.159Z,83904.00
2019-06-07T07:36:59.680Z,81568.00
2019-06-07T07:37:59.781Z,77216.00
2019-06-07T07:39:04.592Z,74528.00
2019-06-07T07:40:09.704Z,72992.00
2019-06-07T07:41:13.106Z,71200.00
2019-06-07T07:42:18.027Z,68000.00
2019-06-07T07:42:57.393Z,64128.00
2019-06-07T07:44:06.003Z,63712.00
2019-06-07T07:44:57.333Z,69856.00
2019-06-07T07:46:02.056Z,78368.00
2019-06-07T07:46:57.305Z,84736.00
2019-06-07T07:48:14.163Z,88832.00
2019-06-07T07:48:57.280Z,89024.00
2019-06-07T07:49:59.145Z,85312.00
2019-06-07T07:51:00.938Z,81376.00
2019-06-07T07:51:59.124Z,76064.00
2019-06-07T07:53:00.697Z,73088.00
2019-06-07T07:54:09.699Z,73312.00
2019-06-07T07:54:58.382Z,75296.00
2019-06-07T07:55:59.953Z,75488.00
2019-06-07T07:56:57.455Z,77280.00
2019-06-07T07:58:01.765Z,77760.00
2019-06-07T07:59:02.104Z,80768.00
2019-06-07T08:00:24.748Z,84192.00
2019-06-07T08:01:09.646Z,86432.00
2019-06-07T08:01:58.699Z,89120.00
2019-06-07T08:02:59.649Z,91712.00
2019-06-07T08:03:58.687Z,92928.00
2019-06-07T08:05:58.921Z,88448.00
2019-06-07T08:06:57.048Z,85984.00
2019-06-07T08:08:03.701Z,86272.00
2019-06-07T08:08:57.191Z,86912.00
2019-06-07T08:10:02.879Z,85792.00
2019-06-07T08:11:01.293Z,83744.00
2019-06-07T08:12:00.717Z,83584.00
2019-06-07T08:13:22.157Z,85152.00
2019-06-07T08:13:57.662Z,88160.00
2019-06-07T08:15:00.424Z,90432.00
2019-06-07T08:15:59.539Z,88800.00
2019-06-07T08:16:57.969Z,85632.00
2019-06-07T08:18:01.178Z,82496.00
2019-06-07T08:19:02.659Z,81824.00
2019-06-07T08:19:57.534Z,83520.00
2019-06-07T08:21:19.831Z,87776.00
2019-06-07T08:21:56.859Z,89568.00
2019-06-07T08:22:59.757Z,95872.00
2019-06-07T08:24:00.737Z,100608.00
2019-06-07T08:24:59.853Z,101792.00
2019-06-07T08:26:00.942Z,97952.00
2019-06-07T08:27:17.742Z,94208.00
2019-06-07T08:27:58.622Z,89728.00
2019-06-07T08:29:01.812Z,85984.00
2019-06-07T08:30:15.763Z,85440.00
2019-06-07T08:31:04.317Z,87936.00
2019-06-07T08:31:58.705Z,90176.00
2019-06-07T08:33:11.992Z,89280.00
2019-06-07T08:34:00.092Z,89216.00
2019-06-07T08:35:02.457Z,87040.00
2019-06-07T08:36:10.869Z,85344.00
2019-06-07T08:36:59.195Z,84640.00
2019-06-07T08:38:22.749Z,85600.00
2019-06-07T08:39:02.595Z,89952.00
2019-06-07T08:39:59.169Z,95168.00
2019-06-07T08:41:05.044Z,96288.00
2019-06-07T08:42:14.123Z,93120.00
2019-06-07T08:43:11.938Z,90176.00
2019-06-07T08:43:59.783Z,82976.00
2019-06-07T08:45:03.147Z,80000.00
2019-06-07T08:46:03.743Z,79104.00
2019-06-07T08:47:14.916Z,81088.00
2019-06-07T08:47:57.982Z,86240.00
2019-06-07T08:49:01.384Z,96032.00
2019-06-07T08:50:01.644Z,103968.00
2019-06-07T08:50:58.709Z,106592.00
2019-06-07T08:52:03.043Z,102400.00
2019-06-07T08:53:03.613Z,93568.00
2019-06-07T08:54:15.824Z,86528.00
2019-06-07T08:54:57.861Z,81600.00
2019-06-07T08:56:00.800Z,80256.00
2019-06-07T08:57:16.889Z,83360.00
2019-06-07T08:58:02.234Z,88928.00
2019-06-07T08:59:00.630Z,91200.00
2019-06-07T09:00:02.356Z,90496.00
2019-06-07T09:01:03.617Z,88032.00
2019-06-07T09:01:59.764Z,84800.00
2019-06-07T09:02:58.921Z,86368.00
2019-06-07T09:04:02.681Z,87808.00
2019-06-07T09:04:59.269Z,89536.00
2019-06-07T09:05:57.193Z,91456.00
2019-06-07T09:07:18.415Z,93600.00
2019-06-07T09:08:22.296Z,92672.00
2019-06-07T09:09:00.336Z,93600.00
2019-06-07T09:10:01.834Z,96096.00
2019-06-07T09:10:58.690Z,98304.00
2019-06-07T09:11:57.193Z,101600.00
2019-06-07T09:13:00.377Z,99072.00
2019-06-07T09:13:57.698Z,91776.00
2019-06-07T09:15:09.335Z,82176.00
2019-06-07T09:16:03.425Z,75392.00
2019-06-07T09:17:01.350Z,77728.00
2019-06-07T09:18:34.872Z,85344.00
2019-06-07T09:18:58.986Z,94528.00
2019-06-07T09:19:58.187Z,102592.00
2019-06-07T09:20:58.192Z,104576.00
2019-06-07T09:22:00.802Z,100160.00
2019-06-07T09:22:59.127Z,94080.00
2019-06-07T09:23:57.271Z,87776.00
2019-06-07T09:25:05.314Z,83712.00
2019-06-07T09:26:04.514Z,85632.00
2019-06-07T09:26:57.706Z,92416.00
2019-06-07T09:28:02.971Z,99648.00
2019-06-07T09:28:57.918Z,99456.00
2019-06-07T09:30:00.574Z,95328.00
2019-06-07T09:30:57.826Z,94272.00
2019-06-07T09:31:59.852Z,94112.00
2019-06-07T09:32:57.284Z,93888.00
2019-06-07T09:33:59.799Z,95744.00
2019-06-07T09:35:02.495Z,93216.00
2019-06-07T09:35:56.177Z,92064.00
2019-06-07T09:36:58.155Z,94048.00
2019-06-07T09:38:07.685Z,93152.00
2019-06-07T09:38:58.735Z,91200.00
2019-06-07T09:40:00.499Z,89024.00
2019-06-07T09:40:57.440Z,87680.00
2019-06-07T09:41:56.261Z,89984.00
2019-06-07T09:43:47.404Z,92032.00
2019-06-07T09:44:04.557Z,96320.00
2019-06-07T09:44:57.013Z,99040.00
2019-06-07T09:45:57.979Z,98176.00
2019-06-07T09:47:20.602Z,96192.00
2019-06-07T09:47:57.057Z,92768.00
2019-06-07T09:49:21.252Z,92672.00
2019-06-07T09:49:58.629Z,92864.00
2019-06-07T09:51:02.118Z,94752.00
2019-06-07T09:51:55.766Z,69792.00
2019-06-07T09:53:02.795Z,20128.00
2019-06-07T09:53:56.149Z,34816.00
2019-06-07T09:55:09.347Z,92544.00
2019-06-07T09:55:56.844Z,87648.00
2019-06-07T09:56:55.629Z,98848.00
2019-06-07T09:57:56.501Z,68544.00
2019-06-07T09:58:55.602Z,101568.00
2019-06-07T09:59:56.289Z,102496.00
2019-06-07T10:00:59.165Z,24800.00
2019-06-07T10:01:59.138Z,25472.00
2019-06-07T10:02:55.550Z,79392.00
2019-06-07T10:03:55.538Z,103584.00
2019-06-07T10:04:55.524Z,108768.00
2019-06-07T10:05:55.528Z,108800.00
2019-06-07T10:06:55.521Z,112800.00
2019-06-07T10:08:09.768Z,110784.00
2019-06-07T10:10:55.443Z,106432.00
2019-06-07T10:11:55.431Z,106976.00
2019-06-07T10:12:55.417Z,106944.00
2019-06-07T10:13:55.414Z,104512.00
2019-06-07T10:14:55.391Z,105984.00
2019-06-07T10:15:55.378Z,102464.00
2019-06-07T10:16:55.367Z,101024.00
2019-06-07T10:17:55.354Z,99904.00
2019-06-07T10:18:55.341Z,96064.00
2019-06-07T10:19:55.325Z,93728.00
2019-06-07T10:20:55.315Z,88640.00
2019-06-07T10:21:55.328Z,94176.00
2019-06-07T10:22:55.323Z,98080.00
2019-06-07T10:23:55.276Z,98176.00
2019-06-07T10:24:55.265Z,97440.00
2019-06-07T10:25:55.254Z,94240.00
2019-06-07T10:26:55.242Z,87456.00
2019-06-07T10:27:55.231Z,83264.00
2019-06-07T10:28:55.228Z,81952.00
2019-06-07T10:29:55.205Z,88480.00
2019-06-07T10:30:55.191Z,97792.00
2019-06-07T10:31:55.185Z,106624.00
2019-06-07T10:32:55.168Z,104192.00
2019-06-07T10:33:55.157Z,97312.00
2019-06-07T10:34:55.143Z,95776.00
2019-06-07T10:35:55.128Z,92800.00
2019-06-07T10:36:55.130Z,99424.00
2019-06-07T10:37:58.095Z,105280.00
2019-06-07T10:38:55.090Z,105728.00
2019-06-07T10:39:55.080Z,104352.00
2019-06-07T10:40:55.066Z,106848.00
2019-06-07T10:41:55.052Z,97248.00
2019-06-07T10:42:55.038Z,95200.00
2019-06-07T10:43:55.026Z,81408.00
2019-06-07T10:44:55.016Z,83520.00
2019-06-07T10:45:55.005Z,86784.00
2019-06-07T10:46:54.994Z,102464.00
2019-06-07T10:47:54.978Z,104576.00
2019-06-07T10:48:54.987Z,105024.00
2019-06-07T10:49:54.952Z,106400.00
2019-06-07T10:50:54.942Z,103616.00
2019-06-07T10:51:54.927Z,109472.00
2019-06-07T10:52:54.914Z,101376.00
2019-06-07T10:53:54.903Z,105024.00
2019-06-07T10:54:54.888Z,99904.00
2019-06-07T10:55:54.877Z,89632.00
2019-06-07T10:56:54.866Z,80256.00
2019-06-07T10:57:54.852Z,75488.00
2019-06-07T10:58:54.838Z,55040.00
2019-06-07T10:59:54.835Z,80928.00
2019-06-07T11:00:54.816Z,84448.00
2019-06-07T11:01:54.801Z,89120.00
2019-06-07T11:02:55.342Z,90272.00
2019-06-07T11:03:54.776Z,24928.00
2019-06-07T11:04:54.767Z,96160.00
2019-06-07T11:05:54.753Z,98656.00
2019-06-07T11:06:54.739Z,96192.00
2019-06-07T11:07:54.728Z,92416.00
2019-06-07T11:08:54.713Z,89056.00
2019-06-07T11:10:06.357Z,84320.00
2019-06-07T11:10:54.687Z,83584.00
2019-06-07T11:11:54.685Z,83520.00
2019-06-07T11:12:54.663Z,85248.00
2019-06-07T11:13:54.653Z,89376.00
2019-06-07T11:14:54.636Z,95136.00
2019-06-07T11:15:54.625Z,99072.00
2019-06-07T11:16:54.616Z,101792.00
2019-06-07T11:17:54.604Z,104160.00
2019-06-07T11:18:54.587Z,100928.00
2019-06-07T11:19:54.575Z,98496.00
2019-06-07T11:20:54.565Z,95168.00
2019-06-07T11:21:54.551Z,90944.00
2019-06-07T11:22:54.538Z,95456.00
2019-06-07T11:23:54.526Z,97440.00
2019-06-07T11:24:54.514Z,92192.00
2019-06-07T11:25:54.502Z,86944.00
2019-06-07T11:26:54.494Z,81792.00
2019-06-07T11:27:54.478Z,81056.00
2019-06-07T11:28:54.470Z,85696.00
2019-06-07T11:29:54.451Z,88800.00
2019-06-07T11:30:54.442Z,89312.00
2019-06-07T11:31:54.426Z,89056.00
2019-06-07T11:32:54.425Z,87328.00
2019-06-07T11:33:54.402Z,87872.00
2019-06-07T11:34:54.389Z,90208.00
2019-06-07T11:35:54.377Z,95616.00
2019-06-07T11:36:54.365Z,96640.00
2019-06-07T11:37:54.353Z,93888.00
2019-06-07T11:38:54.362Z,90880.00
2019-06-07T11:39:54.326Z,87328.00
2019-06-07T11:40:54.324Z,86784.00
2019-06-07T11:41:54.306Z,86336.00
2019-06-07T11:42:54.288Z,83360.00
2019-06-07T11:43:54.277Z,84320.00
2019-06-07T11:44:57.120Z,83424.00
2019-06-07T11:45:54.251Z,84128.00
2019-06-07T11:46:54.239Z,81696.00
2019-06-07T11:47:54.225Z,78944.00
2019-06-07T11:48:54.212Z,78528.00
2019-06-07T11:49:54.198Z,78976.00
2019-06-07T11:50:54.187Z,79872.00
2019-06-07T11:51:54.171Z,82624.00
2019-06-07T11:52:54.159Z,86048.00
2019-06-07T11:53:54.147Z,87616.00
2019-06-07T11:54:54.132Z,89536.00
2019-06-07T11:55:54.120Z,94240.00
2019-06-07T11:56:54.108Z,97440.00
2019-06-07T11:57:54.094Z,96800.00
2019-06-07T11:58:54.081Z,93120.00
2019-06-07T11:59:54.067Z,89440.00
2019-06-07T12:00:54.055Z,86048.00
2019-06-07T12:01:54.042Z,86592.00
2019-06-07T12:02:54.074Z,93344.00
2019-06-07T12:03:54.015Z,100288.00
2019-06-07T12:04:54.002Z,104864.00
2019-06-07T12:05:54.013Z,104864.00
2019-06-07T12:06:53.976Z,98752.00
2019-06-07T12:07:56.993Z,92480.00
2019-06-07T12:08:53.951Z,86176.00
2019-06-07T12:09:56.687Z,86880.00
2019-06-07T12:10:53.926Z,89280.00
2019-06-07T12:11:53.912Z,93440.00
2019-06-07T12:12:53.902Z,96960.00
2019-06-07T12:13:53.889Z,100064.00
2019-06-07T12:14:53.874Z,100448.00